^^
Saratoga-Weather Station Historical Data
Daily Summary for June 27, 2021 Units:  Both    English   Metric
Daily Weekly Monthly Yearly Custom
  High: Low: Average:
Temperature: 61 °F /  16.1 °C 55.2 °F /  12.9 °C 57.2 °F /  14 °C
Dew Point: 58.1 °F /  14.5 °C 54.1 °F /  12.3 °C 55.6 °F /  13.1 °C
Humidity: 96% 89% 94%
Wind Speed: 0mph /  0km/h - 0mph /  0km/h
Wind Gust: 3mph /  4.8km/h - -
Wind- -
Pressure: 30 in /  1016.9 hPa 30 in /  1015.6 hPa -
Precipitation: 0 in /  0.0 mm    
Historical Graphs
 
 
Tabular Data for June 27, 2021
Time Temperature Dew Point Pressure Wind Wind Speed Wind Gust Humidity Rainfall Rate (Hourly) solar
00:03 61 °F /  16.1 °C 58.1 °F /  14.5 °C 30in /  1016.6hPa Calm   3mph /  4.8km/h 90% 0in /  0.0mm 0 W/m2
00:08 61 °F /  16.1 °C 58.1 °F /  14.5 °C 30in /  1016.6hPa Calm   3mph /  4.8km/h 90% 0in /  0.0mm 0 W/m2
00:13 61 °F /  16.1 °C 58.1 °F /  14.5 °C 30in /  1016.6hPa Calm   1mph /  1.6km/h 90% 0in /  0.0mm 0 W/m2
00:19 61 °F /  16.1 °C 57.7 °F /  14.3 °C 30in /  1016.6hPa Calm   3mph /  4.8km/h 89% 0in /  0.0mm 0 W/m2
00:24 60.8 °F /  16 °C 57.6 °F /  14.2 °C 30in /  1016.6hPa Calm     89% 0in /  0.0mm 0 W/m2
00:29 60.6 °F /  15.9 °C 57.7 °F /  14.3 °C 30in /  1016.6hPa Calm   2mph /  3.2km/h 90% 0in /  0.0mm 0 W/m2
00:34 60.4 °F /  15.8 °C 57.6 °F /  14.2 °C 30in /  1016.6hPa Calm   1mph /  1.6km/h 90% 0in /  0.0mm 0 W/m2
00:39 60.1 °F /  15.6 °C 57.2 °F /  14 °C 30in /  1016.9hPa Calm     90% 0in /  0.0mm 0 W/m2
00:44 59.7 °F /  15.4 °C 57 °F /  13.9 °C 30in /  1016.9hPa Calm     91% 0in /  0.0mm 0 W/m2
00:49 59.5 °F /  15.3 °C 56.8 °F /  13.8 °C 30in /  1016.6hPa Calm   1mph /  1.6km/h 91% 0in /  0.0mm 0 W/m2
00:54 59.2 °F /  15.1 °C 56.5 °F /  13.6 °C 30in /  1016.6hPa Calm     91% 0in /  0.0mm 0 W/m2
00:59 58.8 °F /  14.9 °C 56.5 °F /  13.6 °C 30in /  1016.6hPa Calm   2mph /  3.2km/h 92% 0in /  0.0mm 0 W/m2
01:04 58.6 °F /  14.8 °C 56.3 °F /  13.5 °C 30in /  1016.6hPa Calm     92% 0in /  0.0mm 0 W/m2
01:09 58.5 °F /  14.7 °C 56.1 °F /  13.4 °C 30in /  1016.6hPa Calm     92% 0in /  0.0mm 0 W/m2
01:14 58.1 °F /  14.5 °C 55.8 °F /  13.2 °C 30in /  1016.6hPa Calm     92% 0in /  0.0mm 0 W/m2
01:19 57.9 °F /  14.4 °C 55.9 °F /  13.3 °C 30in /  1016.6hPa Calm     93% 0in /  0.0mm 0 W/m2
01:24 57.7 °F /  14.3 °C 55.8 °F /  13.2 °C 30in /  1016.6hPa Calm     93% 0in /  0.0mm 0 W/m2
01:29 57.7 °F /  14.3 °C 55.8 °F /  13.2 °C 30in /  1016.6hPa Calm     93% 0in /  0.0mm 0 W/m2
01:34 57.6 °F /  14.2 °C 55.8 °F /  13.2 °C 30in /  1016.6hPa Calm     94% 0in /  0.0mm 0 W/m2
01:39 57.6 °F /  14.2 °C 55.8 °F /  13.2 °C 30in /  1016.6hPa Calm     94% 0in /  0.0mm 0 W/m2
01:44 57.4 °F /  14.1 °C 55.6 °F /  13.1 °C 30in /  1016.6hPa Calm     94% 0in /  0.0mm 0 W/m2
01:49 57.2 °F /  14 °C 55.4 °F /  13 °C 30in /  1016.6hPa Calm     94% 0in /  0.0mm 0 W/m2
01:54 57 °F /  13.9 °C 55.2 °F /  12.9 °C 30in /  1016.6hPa Calm     94% 0in /  0.0mm 0 W/m2
01:59 57 °F /  13.9 °C 55.2 °F /  12.9 °C 30in /  1016.6hPa Calm     94% 0in /  0.0mm 0 W/m2
02:04 57 °F /  13.9 °C 55.6 °F /  13.1 °C 30in /  1016.6hPa Calm     95% 0in /  0.0mm 0 W/m2
02:09 57 °F /  13.9 °C 55.6 °F /  13.1 °C 30in /  1016.6hPa Calm     95% 0in /  0.0mm 0 W/m2
02:14 57 °F /  13.9 °C 55.6 °F /  13.1 °C 30in /  1016.6hPa Calm     95% 0in /  0.0mm 0 W/m2
02:19 57 °F /  13.9 °C 55.6 °F /  13.1 °C 30in /  1016.6hPa Calm     95% 0in /  0.0mm 0 W/m2
02:24 57 °F /  13.9 °C 55.6 °F /  13.1 °C 30in /  1016.6hPa Calm     95% 0in /  0.0mm 0 W/m2
02:29 56.8 °F /  13.8 °C 55.4 °F /  13 °C 30in /  1016.6hPa Calm     95% 0in /  0.0mm 0 W/m2
02:34 56.8 °F /  13.8 °C 55.4 °F /  13 °C 30in /  1016.6hPa Calm     95% 0in /  0.0mm 0 W/m2
02:39 56.7 °F /  13.7 °C 55.2 °F /  12.9 °C 30in /  1016.6hPa Calm     95% 0in /  0.0mm 0 W/m2
02:44 56.7 °F /  13.7 °C 55.2 °F /  12.9 °C 30in /  1016.6hPa Calm     95% 0in /  0.0mm 0 W/m2
02:49 56.7 °F /  13.7 °C 55.2 °F /  12.9 °C 30in /  1016.6hPa Calm     95% 0in /  0.0mm 0 W/m2
02:54 56.7 °F /  13.7 °C 55.2 °F /  12.9 °C 30in /  1016.6hPa Calm     95% 0in /  0.0mm 0 W/m2
02:59 56.7 °F /  13.7 °C 55.2 °F /  12.9 °C 30in /  1016.6hPa Calm     95% 0in /  0.0mm 0 W/m2
03:04 56.5 °F /  13.6 °C 55 °F /  12.8 °C 30in /  1016.6hPa Calm     95% 0in /  0.0mm 0 W/m2
03:09 56.7 °F /  13.7 °C 55.6 °F /  13.1 °C 30in /  1016.6hPa Calm     96% 0in /  0.0mm 0 W/m2
03:14 56.7 °F /  13.7 °C 55.6 °F /  13.1 °C 30in /  1016.3hPa Calm     96% 0in /  0.0mm 0 W/m2
03:19 56.7 °F /  13.7 °C 55.6 °F /  13.1 °C 30in /  1016.3hPa Calm   1mph /  1.6km/h 96% 0in /  0.0mm 0 W/m2
03:24 56.7 °F /  13.7 °C 55.6 °F /  13.1 °C 30in /  1016.3hPa Calm     96% 0in /  0.0mm 0 W/m2
03:29 56.7 °F /  13.7 °C 55.6 °F /  13.1 °C 30in /  1016.3hPa Calm     96% 0in /  0.0mm 0 W/m2
03:34 56.7 °F /  13.7 °C 55.6 °F /  13.1 °C 30in /  1016.3hPa Calm     96% 0in /  0.0mm 0 W/m2
03:39 56.7 °F /  13.7 °C 55.6 °F /  13.1 °C 30in /  1016.3hPa Calm   1mph /  1.6km/h 96% 0in /  0.0mm 0 W/m2
03:44 56.7 °F /  13.7 °C 55.6 °F /  13.1 °C 30in /  1016.3hPa Calm   1mph /  1.6km/h 96% 0in /  0.0mm 0 W/m2
03:49 56.7 °F /  13.7 °C 55.6 °F /  13.1 °C 30in /  1016.3hPa Calm     96% 0in /  0.0mm 0 W/m2
03:54 56.5 °F /  13.6 °C 55.4 °F /  13 °C 30in /  1016.3hPa Calm     96% 0in /  0.0mm 0 W/m2
03:59 56.5 °F /  13.6 °C 55.4 °F /  13 °C 30in /  1016.3hPa Calm     96% 0in /  0.0mm 0 W/m2
04:04 56.3 °F /  13.5 °C 55.2 °F /  12.9 °C 30in /  1016.3hPa Calm     96% 0in /  0.0mm 0 W/m2
04:09 56.1 °F /  13.4 °C 55 °F /  12.8 °C 30in /  1016.3hPa Calm     96% 0in /  0.0mm 0 W/m2
04:14 55.9 °F /  13.3 °C 54.9 °F /  12.7 °C 30in /  1015.9hPa Calm     96% 0in /  0.0mm 0 W/m2
04:19 55.9 °F /  13.3 °C 54.9 °F /  12.7 °C 30in /  1015.9hPa Calm     96% 0in /  0.0mm 0 W/m2
04:24 55.8 °F /  13.2 °C 54.7 °F /  12.6 °C 30in /  1015.9hPa Calm     96% 0in /  0.0mm 0 W/m2
04:29 55.8 °F /  13.2 °C 54.7 °F /  12.6 °C 30in /  1015.9hPa Calm     96% 0in /  0.0mm 0 W/m2
04:34 55.8 °F /  13.2 °C 54.7 °F /  12.6 °C 30in /  1016.3hPa Calm     96% 0in /  0.0mm 0 W/m2
04:39 55.8 °F /  13.2 °C 54.7 °F /  12.6 °C 30in /  1016.3hPa Calm     96% 0in /  0.0mm 0 W/m2
04:44 55.8 °F /  13.2 °C 54.7 °F /  12.6 °C 30in /  1015.9hPa Calm     96% 0in /  0.0mm 0 W/m2
04:49 55.6 °F /  13.1 °C 54.5 °F /  12.5 °C 30in /  1015.9hPa Calm     96% 0in /  0.0mm 0 W/m2
04:54 55.6 °F /  13.1 °C 54.5 °F /  12.5 °C 30in /  1015.9hPa Calm     96% 0in /  0.0mm 0 W/m2
04:59 55.6 °F /  13.1 °C 54.5 °F /  12.5 °C 30in /  1015.9hPa Calm     96% 0in /  0.0mm 0 W/m2
05:05 55.6 °F /  13.1 °C 54.5 °F /  12.5 °C 30in /  1015.9hPa Calm     96% 0in /  0.0mm 0 W/m2
05:10 55.6 °F /  13.1 °C 54.5 °F /  12.5 °C 30in /  1015.9hPa Calm     96% 0in /  0.0mm 0 W/m2
05:15 55.6 °F /  13.1 °C 54.5 °F /  12.5 °C 30in /  1015.9hPa Calm     96% 0in /  0.0mm 0 W/m2
05:20 55.6 °F /  13.1 °C 54.5 °F /  12.5 °C 30in /  1015.9hPa Calm     96% 0in /  0.0mm 0 W/m2
05:25 55.6 °F /  13.1 °C 54.5 °F /  12.5 °C 30in /  1015.9hPa Calm     96% 0in /  0.0mm 0 W/m2
05:30 55.6 °F /  13.1 °C 54.5 °F /  12.5 °C 30in /  1015.9hPa Calm     96% 0in /  0.0mm 0 W/m2
05:35 55.4 °F /  13 °C 54.3 °F /  12.4 °C 30in /  1015.9hPa Calm     96% 0in /  0.0mm 0 W/m2
05:40 55.4 °F /  13 °C 54.3 °F /  12.4 °C 30in /  1015.9hPa Calm     96% 0in /  0.0mm 0 W/m2
05:45 55.2 °F /  12.9 °C 54.1 °F /  12.3 °C 30in /  1015.9hPa Calm     96% 0in /  0.0mm 0 W/m2
05:50 55.2 °F /  12.9 °C 54.1 °F /  12.3 °C 30in /  1015.6hPa Calm     96% 0in /  0.0mm 0 W/m2
05:55 55.2 °F /  12.9 °C 54.1 °F /  12.3 °C 30in /  1015.9hPa Calm     96% 0in /  0.0mm 0 W/m2
Juneau County Weather
Compliments of Weather Underground - 2 mb